createdAt,value
2023-01-20T00:01:46.499Z,15.55
2023-01-20T00:04:15.085Z,15.50
2023-01-20T00:06:42.377Z,16.08
2023-01-20T00:09:14.601Z,16.35
2023-01-20T00:11:41.940Z,17.02
2023-01-20T00:14:09.864Z,16.35
2023-01-20T00:16:37.127Z,16.35
2023-01-20T00:19:04.547Z,15.30
2023-01-20T00:21:32.075Z,14.55
2023-01-20T00:23:59.900Z,14.52
2023-01-20T00:26:27.218Z,13.35
2023-01-20T00:28:55.801Z,13.70
2023-01-20T00:31:28.649Z,14.00
2023-01-20T00:33:57.999Z,13.85
2023-01-20T00:36:27.246Z,12.80
2023-01-20T00:38:54.617Z,15.20
2023-01-20T00:41:21.907Z,15.40
2023-01-20T00:43:49.486Z,15.10
2023-01-20T00:46:17.014Z,16.45
2023-01-20T00:48:44.315Z,16.40
2023-01-20T00:51:12.645Z,17.50
2023-01-20T00:53:39.941Z,16.48
2023-01-20T00:56:07.705Z,17.42
2023-01-20T00:58:35.027Z,17.13
2023-01-20T01:01:02.740Z,17.83
2023-01-20T01:03:30.354Z,17.05
2023-01-20T01:06:15.151Z,17.65
2023-01-20T01:08:43.604Z,18.02
2023-01-20T01:11:12.031Z,17.90
2023-01-20T01:13:39.419Z,17.33
2023-01-20T01:16:13.780Z,17.63
2023-01-20T01:18:41.823Z,17.25
2023-01-20T01:21:10.684Z,17.88
2023-01-20T01:23:38.093Z,18.20
2023-01-20T01:26:05.588Z,17.85
2023-01-20T01:28:32.954Z,17.20
2023-01-20T01:31:02.058Z,18.15
2023-01-20T01:33:30.078Z,18.17
2023-01-20T01:35:58.900Z,17.42
2023-01-20T01:38:27.010Z,18.15
2023-01-20T01:40:55.491Z,20.15
2023-01-20T01:43:29.145Z,20.38
2023-01-20T01:45:56.980Z,18.73
2023-01-20T01:48:28.999Z,19.02
2023-01-20T01:50:57.788Z,18.90
2023-01-20T01:53:25.833Z,18.85
2023-01-20T01:55:59.476Z,19.85
2023-01-20T01:58:30.477Z,19.30
2023-01-20T02:00:58.103Z,18.08
2023-01-20T02:03:50.688Z,18.60
2023-01-20T02:06:18.177Z,18.45
2023-01-20T02:08:45.852Z,19.13
2023-01-20T02:11:13.285Z,18.70
2023-01-20T02:13:40.831Z,19.95
2023-01-20T02:16:15.425Z,18.58
2023-01-20T02:18:51.743Z,18.98
2023-01-20T02:21:34.105Z,17.58
2023-01-20T02:24:42.939Z,16.65
2023-01-20T02:27:41.321Z,16.55
2023-01-20T02:30:21.761Z,17.90
2023-01-20T02:32:55.558Z,17.02
2023-01-20T02:35:30.259Z,16.90
2023-01-20T02:38:07.210Z,17.20
2023-01-20T02:40:40.590Z,18.13
2023-01-20T02:43:42.161Z,17.42
2023-01-20T02:46:17.941Z,18.17
2023-01-20T02:48:52.406Z,18.50
2023-01-20T02:51:26.323Z,17.17
2023-01-20T02:53:58.294Z,16.92
2023-01-20T02:56:28.259Z,15.70
2023-01-20T03:01:28.742Z,15.98
2023-01-20T03:03:58.304Z,16.00
2023-01-20T03:06:28.749Z,16.52
2023-01-20T03:08:56.971Z,17.38
2023-01-20T03:11:24.352Z,16.48
2023-01-20T03:13:57.567Z,17.63
2023-01-20T03:16:26.944Z,18.38
2023-01-20T03:18:55.376Z,17.95
2023-01-20T03:21:23.216Z,15.93
2023-01-20T03:23:52.775Z,18.00
2023-01-20T03:26:22.690Z,19.65
2023-01-20T03:28:50.377Z,19.10
2023-01-20T03:31:55.370Z,19.08
2023-01-20T03:34:23.753Z,19.27
2023-01-20T03:36:52.428Z,18.02
2023-01-20T03:39:20.361Z,15.90
2023-01-20T03:42:09.468Z,13.25
2023-01-20T03:45:01.572Z,14.05
2023-01-20T03:47:37.900Z,12.68
2023-01-20T03:50:45.097Z,13.32
2023-01-20T03:53:45.465Z,12.50
2023-01-20T03:56:27.323Z,11.75
2023-01-20T03:58:56.145Z,12.20
2023-01-20T04:01:38.875Z,10.98
2023-01-20T04:04:26.187Z,10.90
2023-01-20T04:06:53.478Z,10.70
2023-01-20T04:09:28.605Z,10.55
2023-01-20T04:11:55.818Z,10.65
2023-01-20T04:14:23.363Z,10.65
2023-01-20T04:16:56.261Z,10.55
2023-01-20T04:19:24.911Z,10.68
2023-01-20T04:22:06.676Z,11.35
2023-01-20T04:24:44.488Z,10.90
2023-01-20T04:27:11.885Z,11.93
2023-01-20T04:29:41.474Z,12.43
2023-01-20T04:32:11.011Z,12.20
2023-01-20T04:34:38.961Z,12.45
2023-01-20T04:37:06.277Z,11.70
2023-01-20T04:39:33.720Z,12.27
2023-01-20T04:42:01.126Z,12.07
2023-01-20T04:44:28.416Z,13.32
2023-01-20T04:46:59.248Z,12.80
2023-01-20T04:49:26.576Z,12.05
2023-01-20T04:51:54.140Z,12.35
2023-01-20T04:54:21.430Z,12.55
2023-01-20T04:56:49.321Z,14.43
2023-01-20T04:59:16.789Z,14.00
2023-01-20T05:01:44.273Z,13.95
2023-01-20T05:04:11.669Z,13.93
2023-01-20T05:06:42.710Z,14.48
2023-01-20T05:09:13.863Z,13.30
2023-01-20T05:11:42.016Z,14.35
2023-01-20T05:14:09.353Z,14.25
2023-01-20T05:16:36.768Z,14.15
2023-01-20T05:19:04.186Z,14.98
2023-01-20T05:21:31.882Z,14.85
2023-01-20T05:23:59.348Z,14.32
2023-01-20T05:26:26.960Z,14.88
2023-01-20T05:28:54.386Z,14.98
2023-01-20T05:31:21.928Z,14.23
2023-01-20T05:33:49.378Z,14.55
2023-01-20T05:36:16.881Z,14.80
2023-01-20T05:38:44.123Z,14.20
2023-01-20T05:41:11.539Z,15.43
2023-01-20T05:43:38.848Z,15.43
2023-01-20T05:46:06.324Z,17.33
2023-01-20T05:48:33.675Z,16.52
2023-01-20T05:51:00.992Z,16.58
2023-01-20T05:53:33.228Z,17.15
2023-01-20T05:56:01.908Z,17.13
2023-01-20T05:58:32.093Z,17.48
2023-01-20T06:01:11.067Z,17.00
2023-01-20T06:03:38.642Z,16.95
2023-01-20T06:06:08.291Z,18.17
2023-01-20T06:08:35.977Z,18.00
2023-01-20T06:11:03.361Z,17.30
2023-01-20T06:13:30.666Z,17.77
2023-01-20T06:15:58.182Z,18.65
2023-01-20T06:18:25.604Z,17.85
2023-01-20T06:20:57.170Z,17.88
2023-01-20T06:23:25.298Z,16.33
2023-01-20T06:26:11.902Z,18.17
2023-01-20T06:28:39.446Z,18.05
2023-01-20T06:31:17.109Z,18.77
2023-01-20T06:33:44.475Z,18.25
2023-01-20T06:36:17.626Z,17.98
2023-01-20T06:38:50.626Z,18.23
2023-01-20T06:41:19.117Z,18.27
2023-01-20T06:43:46.537Z,17.23
2023-01-20T06:46:15.780Z,18.17
2023-01-20T06:48:44.014Z,17.55
2023-01-20T06:51:19.553Z,21.70
2023-01-20T06:53:47.503Z,17.95
2023-01-20T06:56:15.824Z,17.15
2023-01-20T06:58:43.448Z,17.67
2023-01-20T07:01:22.559Z,16.95
2023-01-20T07:03:50.449Z,18.10
2023-01-20T07:06:38.553Z,23.70
2023-01-20T07:09:08.229Z,18.73
2023-01-20T07:11:35.956Z,16.48
2023-01-20T07:14:04.308Z,16.85
2023-01-20T07:16:31.847Z,16.05
2023-01-20T07:18:59.351Z,16.17
2023-01-20T07:21:27.272Z,17.10
2023-01-20T07:23:54.635Z,17.10
2023-01-20T07:26:24.327Z,16.70
2023-01-20T07:28:52.199Z,15.57
2023-01-20T07:31:21.879Z,16.05
2023-01-20T07:33:50.020Z,16.38
2023-01-20T07:36:17.796Z,16.77
2023-01-20T07:38:49.468Z,15.52
2023-01-20T07:41:18.247Z,15.32
2023-01-20T07:43:47.835Z,14.80
2023-01-20T07:46:15.458Z,17.52
2023-01-20T07:48:42.981Z,15.32
2023-01-20T07:51:12.350Z,14.18
2023-01-20T07:53:46.844Z,13.88
2023-01-20T07:56:16.849Z,13.55
2023-01-20T07:58:49.176Z,13.75
2023-01-20T08:01:19.981Z,13.80
2023-01-20T08:03:48.917Z,14.38
2023-01-20T08:06:18.649Z,13.63
2023-01-20T08:08:46.230Z,12.98
2023-01-20T08:11:15.079Z,13.77
2023-01-20T08:13:42.800Z,13.73
2023-01-20T08:16:12.122Z,12.77
2023-01-20T08:18:39.814Z,13.40
2023-01-20T08:21:08.523Z,13.23
2023-01-20T08:23:36.412Z,13.45
2023-01-20T08:26:08.390Z,12.30
2023-01-20T08:28:36.388Z,14.65
2023-01-20T08:31:12.037Z,9.90
2023-01-20T08:33:41.264Z,11.27
2023-01-20T08:36:16.600Z,11.70
2023-01-20T08:38:44.620Z,11.68
2023-01-20T08:41:18.763Z,11.65
2023-01-20T08:43:52.848Z,12.02
2023-01-20T08:46:21.964Z,12.15
2023-01-20T08:48:50.815Z,11.30
2023-01-20T08:51:21.900Z,11.50
2023-01-20T08:53:49.462Z,11.30
2023-01-20T08:56:18.038Z,11.80
2023-01-20T08:58:45.641Z,11.40
2023-01-20T09:01:21.449Z,11.00
2023-01-20T09:04:03.885Z,10.57
2023-01-20T09:06:53.886Z,9.65
2023-01-20T09:09:22.538Z,7.97
2023-01-20T09:11:52.764Z,8.68
2023-01-20T09:14:21.356Z,9.00
2023-01-20T09:16:49.019Z,7.70
2023-01-20T09:19:16.514Z,7.78
2023-01-20T09:21:44.033Z,8.57
2023-01-20T09:24:11.589Z,7.75
2023-01-20T09:26:39.105Z,8.73
2023-01-20T09:29:10.411Z,7.80
2023-01-20T09:31:39.442Z,8.07
2023-01-20T09:34:06.937Z,8.45
2023-01-20T09:36:34.302Z,8.15
2023-01-20T09:39:20.204Z,8.48
2023-01-20T09:42:07.664Z,8.10
2023-01-20T09:44:34.958Z,7.88
2023-01-20T09:47:20.689Z,7.78
2023-01-20T09:50:30.498Z,8.02
2023-01-20T09:53:16.604Z,7.03
2023-01-20T09:56:08.599Z,6.82
2023-01-20T09:58:46.466Z,6.93
2023-01-20T10:01:35.402Z,6.72
2023-01-20T10:04:24.096Z,6.68
2023-01-20T10:07:21.292Z,6.53
2023-01-20T10:09:59.055Z,7.15
2023-01-20T10:12:33.797Z,6.63
2023-01-20T10:15:08.213Z,7.28
2023-01-20T10:17:41.214Z,6.43
2023-01-20T10:20:14.728Z,6.00
2023-01-20T10:23:08.658Z,6.32
2023-01-20T10:25:44.246Z,5.95
2023-01-20T10:28:14.840Z,7.03
2023-01-20T10:30:42.356Z,6.07
2023-01-20T10:33:11.249Z,6.57
2023-01-20T10:35:43.688Z,5.60
2023-01-20T10:38:39.160Z,5.53
2023-01-20T10:41:20.477Z,7.22
2023-01-20T10:43:48.149Z,5.93
2023-01-20T10:46:18.447Z,5.28
2023-01-20T10:49:07.960Z,5.50
2023-01-20T10:51:50.493Z,6.15
2023-01-20T10:54:23.795Z,5.82
2023-01-20T10:56:53.927Z,5.75
2023-01-20T10:59:29.157Z,5.47
2023-01-20T11:02:11.329Z,5.10
2023-01-20T11:04:39.895Z,6.07
2023-01-20T11:07:18.420Z,6.25
2023-01-20T11:09:47.998Z,6.25
2023-01-20T11:12:18.221Z,6.57
2023-01-20T11:14:46.614Z,6.03
2023-01-20T11:17:18.792Z,6.50
2023-01-20T11:19:58.269Z,6.22
2023-01-20T11:22:31.788Z,42.22
2023-01-20T11:25:00.560Z,32.58
2023-01-20T11:27:40.819Z,27.42
2023-01-20T11:30:31.014Z,12.70
2023-01-20T11:33:18.968Z,13.43
2023-01-20T11:36:16.301Z,8.32
2023-01-20T11:38:45.639Z,9.65
2023-01-20T11:41:29.884Z,29.98
2023-01-20T11:43:59.745Z,15.05
2023-01-20T11:46:33.021Z,10.50
2023-01-20T11:49:22.483Z,6.53
2023-01-20T11:51:54.058Z,7.47
2023-01-20T11:54:26.977Z,7.03
2023-01-20T11:56:57.563Z,5.55
2023-01-20T11:59:30.763Z,6.63
2023-01-20T12:01:58.290Z,4.95
2023-01-20T12:04:28.692Z,4.85
2023-01-20T12:07:00.132Z,5.47
2023-01-20T12:09:34.369Z,4.55
2023-01-20T12:12:20.429Z,6.30
2023-01-20T12:14:52.885Z,6.82
2023-01-20T12:17:29.496Z,7.60
2023-01-20T12:20:08.806Z,5.57
2023-01-20T12:22:49.620Z,5.35
2023-01-20T12:25:30.840Z,5.35
2023-01-20T12:28:06.014Z,4.78
2023-01-20T12:30:38.234Z,3.90
2023-01-20T12:33:11.837Z,5.03
2023-01-20T12:35:44.500Z,4.88
2023-01-20T12:38:18.397Z,4.07
2023-01-20T12:40:45.714Z,4.25
2023-01-20T12:43:31.294Z,5.40
2023-01-20T12:46:29.269Z,3.65
2023-01-20T12:49:08.558Z,4.68
2023-01-20T12:51:39.200Z,4.18
2023-01-20T12:54:47.176Z,3.78
2023-01-20T12:57:58.798Z,4.15
2023-01-20T13:01:23.057Z,4.13
2023-01-20T13:04:15.975Z,4.00
2023-01-20T13:07:06.866Z,4.25
2023-01-20T13:10:04.422Z,4.00
2023-01-20T13:12:41.314Z,4.80
2023-01-20T13:15:34.032Z,3.80
2023-01-20T13:18:22.699Z,4.07
2023-01-20T13:20:51.697Z,3.88
2023-01-20T13:23:24.214Z,4.72
2023-01-20T13:25:52.391Z,4.22
2023-01-20T13:28:22.407Z,3.83
2023-01-20T13:30:51.685Z,3.88
2023-01-20T13:33:39.233Z,3.13
2023-01-20T13:36:19.166Z,2.97
2023-01-20T13:38:48.559Z,3.38
2023-01-20T13:41:46.768Z,3.38
2023-01-20T13:44:35.328Z,2.67
2023-01-20T13:47:08.032Z,3.22
2023-01-20T13:49:48.764Z,3.50
2023-01-20T13:53:01.850Z,2.50
2023-01-20T13:55:41.432Z,2.92
2023-01-20T13:58:17.719Z,3.20
2023-01-20T14:00:46.193Z,2.50
2023-01-20T14:03:19.585Z,3.00
2023-01-20T14:05:50.995Z,2.78
2023-01-20T14:08:18.920Z,3.05
2023-01-20T14:10:46.597Z,2.97
2023-01-20T14:13:25.116Z,2.85
2023-01-20T14:15:54.790Z,2.78
2023-01-20T14:18:23.662Z,2.35
2023-01-20T14:21:18.262Z,3.00
2023-01-20T14:23:48.422Z,2.50
2023-01-20T14:28:57.503Z,2.60
2023-01-20T14:31:45.522Z,3.10
2023-01-20T14:34:33.059Z,2.72
2023-01-20T14:37:16.331Z,2.67
2023-01-20T14:39:48.528Z,3.15
2023-01-20T14:42:21.458Z,2.20
2023-01-20T14:44:53.554Z,2.92
2023-01-20T14:47:22.318Z,2.45
2023-01-20T14:49:51.381Z,2.75
2023-01-20T14:52:27.018Z,2.40
2023-01-20T14:54:56.445Z,2.67
2023-01-20T14:57:34.200Z,2.38
2023-01-20T15:00:24.228Z,2.75
2023-01-20T15:03:09.876Z,2.70
2023-01-20T15:05:41.133Z,2.85
2023-01-20T15:10:46.363Z,2.58
2023-01-20T15:13:25.460Z,2.60
2023-01-20T15:16:12.101Z,2.53
2023-01-20T15:18:40.023Z,2.72
2023-01-20T15:21:27.133Z,2.70
2023-01-20T15:23:54.569Z,3.00
2023-01-20T15:26:28.590Z,3.40
2023-01-20T15:28:56.861Z,3.63
2023-01-20T15:31:24.966Z,3.15
2023-01-20T15:33:52.422Z,2.75
2023-01-20T15:36:27.900Z,3.10
2023-01-20T15:38:55.458Z,3.03
2023-01-20T15:41:22.937Z,2.80
2023-01-20T15:43:52.502Z,2.67
2023-01-20T15:46:19.929Z,3.22
2023-01-20T15:48:47.538Z,3.85
2023-01-20T15:51:16.944Z,3.13
2023-01-20T15:53:44.754Z,3.47
2023-01-20T15:56:23.362Z,3.08
2023-01-20T15:58:50.824Z,2.58
2023-01-20T16:01:20.769Z,2.60
2023-01-20T16:06:17.347Z,2.33
2023-01-20T16:08:46.909Z,2.22
2023-01-20T16:11:15.361Z,2.83
2023-01-20T16:13:42.687Z,3.03
2023-01-20T16:16:12.338Z,3.05
2023-01-20T16:18:39.660Z,2.83
2023-01-20T16:21:11.135Z,2.40
2023-01-20T16:23:38.659Z,3.47
2023-01-20T16:26:26.626Z,2.80
2023-01-20T16:28:56.383Z,3.38
2023-01-20T16:31:24.641Z,2.80
2023-01-20T16:33:52.929Z,3.03
2023-01-20T16:36:22.068Z,2.50
2023-01-20T16:38:50.555Z,2.95
2023-01-20T16:41:23.586Z,2.95
2023-01-20T16:43:52.162Z,2.80
2023-01-20T16:46:21.875Z,3.08
2023-01-20T16:48:49.945Z,3.65
2023-01-20T16:51:19.855Z,2.80
2023-01-20T16:53:47.800Z,2.67
2023-01-20T16:56:30.945Z,3.03
2023-01-20T16:59:01.624Z,2.30
2023-01-20T17:01:30.859Z,2.85
2023-01-20T17:04:03.019Z,3.20
2023-01-20T17:06:33.377Z,3.25
2023-01-20T17:09:02.417Z,3.35
2023-01-20T17:11:35.704Z,3.55
2023-01-20T17:14:05.588Z,3.80
2023-01-20T17:16:33.402Z,3.72
2023-01-20T17:19:01.582Z,3.65
2023-01-20T17:21:31.512Z,3.33
2023-01-20T17:26:30.892Z,3.45
2023-01-20T17:29:02.229Z,3.55
2023-01-20T17:31:33.334Z,3.28
2023-01-20T17:34:00.664Z,3.22
2023-01-20T17:36:29.546Z,3.50
2023-01-20T17:38:58.071Z,3.50
2023-01-20T17:41:25.343Z,3.13
2023-01-20T17:43:52.625Z,3.42
2023-01-20T17:46:25.446Z,4.03
2023-01-20T17:48:52.770Z,2.92
2023-01-20T17:51:28.567Z,3.20
2023-01-20T17:53:58.302Z,3.30
2023-01-20T17:56:26.077Z,3.67
2023-01-20T17:58:54.005Z,3.67
2023-01-20T18:01:30.231Z,3.83
2023-01-20T18:03:59.090Z,3.60
2023-01-20T18:06:27.730Z,3.35
2023-01-20T18:08:57.893Z,4.00
2023-01-20T18:11:27.432Z,3.65
2023-01-20T18:13:56.309Z,3.80
2023-01-20T18:16:26.941Z,3.92
2023-01-20T18:18:58.894Z,4.00
2023-01-20T18:21:29.902Z,3.80
2023-01-20T18:23:58.166Z,3.35
2023-01-20T18:26:29.575Z,3.90
2023-01-20T18:28:58.494Z,4.30
2023-01-20T18:31:27.221Z,3.63
2023-01-20T18:34:03.514Z,3.50
2023-01-20T18:36:33.675Z,5.10
2023-01-20T18:41:30.705Z,3.08
2023-01-20T18:44:16.035Z,3.25
2023-01-20T18:46:43.896Z,3.65
2023-01-20T18:49:13.587Z,3.80
2023-01-20T18:51:44.401Z,3.53
2023-01-20T18:54:20.908Z,3.42
2023-01-20T18:56:48.254Z,4.60
2023-01-20T18:59:15.617Z,11.60
2023-01-20T19:01:43.142Z,5.20
2023-01-20T19:04:12.159Z,4.90
2023-01-20T19:06:42.066Z,4.53
2023-01-20T19:09:10.152Z,4.60
2023-01-20T19:11:42.333Z,37.45
2023-01-20T19:14:13.306Z,25.80
2023-01-20T19:16:49.300Z,10.30
2023-01-20T19:19:20.365Z,6.53
2023-01-20T19:21:51.928Z,6.55
2023-01-20T19:24:20.751Z,5.93
2023-01-20T19:26:48.178Z,5.80
2023-01-20T19:29:17.234Z,5.38
2023-01-20T19:31:44.685Z,5.13
2023-01-20T19:34:12.908Z,7.30
2023-01-20T19:36:40.468Z,6.05
2023-01-20T19:39:07.949Z,6.05
2023-01-20T19:41:36.106Z,5.35
2023-01-20T19:44:06.509Z,5.78
2023-01-20T19:46:36.762Z,6.75
2023-01-20T19:49:04.586Z,5.97
2023-01-20T19:51:32.107Z,6.50
2023-01-20T19:54:01.079Z,6.90
2023-01-20T19:56:30.771Z,6.22
2023-01-20T19:59:00.790Z,7.47
2023-01-20T20:03:59.349Z,7.07
2023-01-20T20:06:37.966Z,7.05
2023-01-20T20:09:08.160Z,6.53
2023-01-20T20:11:36.850Z,8.77
2023-01-20T20:14:07.695Z,7.13
2023-01-20T20:16:36.870Z,7.05
2023-01-20T20:19:05.573Z,5.88
2023-01-20T20:21:33.752Z,5.18
2023-01-20T20:24:01.727Z,5.65
2023-01-20T20:26:31.555Z,5.78
2023-01-20T20:28:59.821Z,5.40
2023-01-20T20:31:29.479Z,6.15
2023-01-20T20:34:01.591Z,5.90
2023-01-20T20:36:31.068Z,7.40
2023-01-20T20:38:59.239Z,7.47
2023-01-20T20:41:30.608Z,6.53
2023-01-20T20:43:59.338Z,5.65
2023-01-20T20:46:28.182Z,6.60
2023-01-20T20:48:59.248Z,5.25
2023-01-20T20:51:28.361Z,5.25
2023-01-20T20:53:56.398Z,5.60
2023-01-20T20:56:24.793Z,6.00
2023-01-20T20:59:01.443Z,5.88
2023-01-20T21:01:30.766Z,5.97
2023-01-20T21:04:00.401Z,6.53
2023-01-20T21:06:28.441Z,6.15
2023-01-20T21:08:57.050Z,9.73
2023-01-20T21:11:24.931Z,15.27
2023-01-20T21:13:53.082Z,9.68
2023-01-20T21:16:23.109Z,7.15
2023-01-20T21:18:53.055Z,7.35
2023-01-20T21:21:20.985Z,7.18
2023-01-20T21:23:54.115Z,5.88
2023-01-20T21:26:22.521Z,6.72
2023-01-20T21:28:49.762Z,5.50
2023-01-20T21:31:21.135Z,5.35
2023-01-20T21:33:54.915Z,5.43
2023-01-20T21:36:22.901Z,6.07
2023-01-20T21:38:53.521Z,5.25
2023-01-20T21:41:21.290Z,5.20
2023-01-20T21:44:07.633Z,4.75
2023-01-20T21:46:40.286Z,4.93
2023-01-20T21:49:27.317Z,5.05
2023-01-20T21:52:14.764Z,4.93
2023-01-20T21:54:42.251Z,5.00
2023-01-20T21:57:09.659Z,6.05
2023-01-20T21:59:38.003Z,5.00
2023-01-20T22:02:05.856Z,4.78
2023-01-20T22:04:33.621Z,4.68
2023-01-20T22:07:00.886Z,4.95
2023-01-20T22:09:28.241Z,5.30
2023-01-20T22:11:55.626Z,5.60
2023-01-20T22:14:23.216Z,5.68
2023-01-20T22:16:50.584Z,6.22
2023-01-20T22:19:17.893Z,6.25
2023-01-20T22:21:45.290Z,6.20
2023-01-20T22:24:12.659Z,5.45
2023-01-20T22:26:40.232Z,5.82
2023-01-20T22:29:07.970Z,5.60
2023-01-20T22:31:35.437Z,6.47
2023-01-20T22:34:05.146Z,5.38
2023-01-20T22:36:33.696Z,5.75
2023-01-20T22:39:01.282Z,5.03
2023-01-20T22:41:28.660Z,4.93
2023-01-20T22:43:56.836Z,5.57
2023-01-20T22:46:26.280Z,5.45
2023-01-20T22:48:58.533Z,4.88
2023-01-20T22:51:28.392Z,4.63
2023-01-20T22:53:57.962Z,5.15
2023-01-20T22:56:27.607Z,4.63
2023-01-20T22:58:58.657Z,4.50
2023-01-20T23:01:31.483Z,4.68
2023-01-20T23:04:04.544Z,5.53
2023-01-20T23:06:33.694Z,4.85
2023-01-20T23:09:03.945Z,4.47
2023-01-20T23:11:31.703Z,5.07
2023-01-20T23:13:59.057Z,4.57
2023-01-20T23:16:26.444Z,4.55
2023-01-20T23:18:53.888Z,4.60
2023-01-20T23:21:21.703Z,4.32
2023-01-20T23:23:54.414Z,4.93
2023-01-20T23:26:44.599Z,4.47
2023-01-20T23:31:39.093Z,4.60
2023-01-20T23:34:06.960Z,3.90
2023-01-20T23:36:34.259Z,4.03
2023-01-20T23:39:01.569Z,4.78
2023-01-20T23:41:28.979Z,4.70
2023-01-20T23:43:56.422Z,4.38
2023-01-20T23:46:23.764Z,4.80
2023-01-20T23:48:51.072Z,4.75
2023-01-20T23:51:18.359Z,4.80
2023-01-20T23:53:45.696Z,4.10
2023-01-20T23:56:18.456Z,4.93
2023-01-20T23:58:46.300Z,4.13
